Time;durP1;ratioP1;P1;durP2;ratioP2;P2;SDS_P1;SDS_P2;PMS_P1;PMS_P2;Temp;Humidity;BMP_temperature;BMP_pressure;BME280_temperature;BME280_humidity;BME280_pressure;Samples;Min_cycle;Max_cycle;Signal;HPM_P1;HPM_P2
2022/05/22 00:00:01;;;;;;;7.32;3.47;;;;;;;8.40;99.42;101851.63;1038343;28;20307;-80
2022/05/22 00:00:43;;;;;;;9.43;4.45;;;;;;;8.32;99.00;101855.97;1035817;28;20297;-80
2022/05/22 00:01:28;;;;;;;10.00;3.83;;;;;;;8.36;98.42;101851.97;1036310;28;20810;-77
2022/05/22 00:02:00;;;;;;;6.43;3.70;;;;;;;8.25;98.89;101851.53;1037955;28;20435;-79
2022/05/22 00:02:32;;;;;;;8.57;4.10;;;;;;;8.13;98.70;101848.44;1043814;28;20400;-81
2022/05/22 00:03:16;;;;;;;3.85;3.40;;;;;;;8.09;98.68;101847.16;1043281;28;20320;-79
2022/05/22 00:04:19;;;;;;;6.45;3.17;;;;;;;8.15;98.85;101850.94;1038290;28;20806;-79
2022/05/22 00:04:51;;;;;;;3.20;2.55;;;;;;;8.20;98.51;101852.06;1038025;28;20305;-78
2022/05/22 00:05:24;;;;;;;3.92;2.78;;;;;;;8.13;98.64;101847.63;1040941;28;20347;-79
2022/05/22 00:05:56;;;;;;;5.43;3.33;;;;;;;8.15;99.17;101846.44;1036336;28;20296;-79
2022/05/22 00:06:27;;;;;;;3.85;2.85;;;;;;;8.06;99.14;101847.50;1036885;28;20301;-79
2022/05/22 00:07:13;;;;;;;5.60;3.00;;;;;;;8.09;99.23;101847.16;1034042;28;20783;-80
2022/05/22 00:08:10;;;;;;;6.75;3.13;;;;;;;8.13;99.42;101848.44;1030398;28;20660;-80
2022/05/22 00:08:57;;;;;;;3.90;2.55;;;;;;;8.14;98.69;101851.94;1039647;28;20315;-79
2022/05/22 00:09:29;;;;;;;3.67;3.17;;;;;;;8.13;99.18;101848.44;1042159;28;20487;-79
2022/05/22 00:10:04;;;;;;;5.15;3.55;;;;;;;8.02;98.66;101848.84;1042452;28;20322;-81
2022/05/22 00:10:38;;;;;;;6.88;3.75;;;;;;;8.02;98.80;101851.50;1034257;28;20301;-79
2022/05/22 00:11:13;;;;;;;4.05;2.92;;;;;;;8.01;98.76;101849.88;1031852;28;20302;-80
2022/05/22 00:11:45;;;;;;;5.50;3.95;;;;;;;7.97;98.56;101848.56;1035287;28;20304;-80
2022/05/22 00:12:17;;;;;;;6.07;3.75;;;;;;;7.90;99.11;101845.75;1037370;28;20331;-80
2022/05/22 00:12:49;;;;;;;10.02;3.80;;;;;;;7.75;98.82;101847.50;1037237;28;20300;-80
2022/05/22 00:13:20;;;;;;;6.55;3.67;;;;;;;7.84;99.17;101841.16;1036142;28;20817;-79
2022/05/22 00:13:52;;;;;;;6.95;4.72;;;;;;;7.87;98.72;101843.44;1030757;28;20309;-78
2022/05/22 00:14:27;;;;;;;8.23;4.00;;;;;;;7.87;99.00;101842.63;1031830;28;20305;-79
2022/05/22 00:14:58;;;;;;;5.25;3.90;;;;;;;7.91;98.91;101838.63;1036606;28;20301;-79
2022/05/22 00:16:42;;;;;;;7.95;3.67;;;;;;;7.94;99.47;101835.63;1040009;28;20299;-78
2022/05/22 00:17:18;;;;;;;5.70;4.03;;;;;;;8.05;99.21;101836.06;1034022;28;20311;-78
2022/05/22 00:17:49;;;;;;;9.27;4.00;;;;;;;8.09;99.33;101828.56;1031586;28;20293;-78
2022/05/22 00:18:24;;;;;;;8.77;4.68;;;;;;;8.16;99.41;101837.47;1034999;28;20663;-78
2022/05/22 00:18:56;;;;;;;10.05;4.25;;;;;;;7.59;98.90;101835.13;1029883;28;20294;-78
2022/05/22 00:19:31;;;;;;;5.22;4.53;;;;;;;7.56;98.98;101827.53;1032809;28;20286;-78
2022/05/22 00:20:04;;;;;;;17.73;4.65;;;;;;;7.33;99.10;101829.25;1029080;28;20348;-77
2022/05/22 00:21:18;;;;;;;4.43;3.95;;;;;;;7.05;99.97;101826.19;1027303;28;20312;-77
2022/05/22 00:22:00;;;;;;;11.52;4.32;;;;;;;7.10;100.00;101827.31;1038037;28;20304;-77
2022/05/22 00:22:32;;;;;;;5.85;4.07;;;;;;;7.34;100.00;101822.97;1038208;28;20785;-77
2022/05/22 00:23:04;;;;;;;7.10;3.67;;;;;;;7.32;100.00;101828.44;1035247;28;20305;-77
2022/05/22 00:23:36;;;;;;;4.13;3.72;;;;;;;7.26;100.00;101828.28;1031931;28;20498;-77
2022/05/22 00:24:19;;;;;;;4.93;3.75;;;;;;;7.24;100.00;101825.00;1035771;28;20341;-78
2022/05/22 00:24:52;;;;;;;7.38;4.32;;;;;;;7.18;100.00;101828.31;1037869;28;20683;-77
2022/05/22 00:25:24;;;;;;;5.20;3.92;;;;;;;7.09;100.00;101827.50;1035369;28;20429;-77
2022/05/22 00:25:56;;;;;;;9.35;4.05;;;;;;;7.30;100.00;101832.25;1033109;28;20329;-81
2022/05/22 00:26:28;;;;;;;6.03;3.92;;;;;;;7.40;100.00;101827.59;1032632;28;20367;-77
2022/05/22 00:27:04;;;;;;;6.10;4.60;;;;;;;7.42;100.00;101828.25;1034695;28;20299;-78
2022/05/22 00:27:40;;;;;;;6.20;4.13;;;;;;;7.38;100.00;101824.28;1031057;28;20306;-78
2022/05/22 00:28:11;;;;;;;5.72;3.78;;;;;;;7.35;100.00;101821.97;1033420;28;20297;-78
2022/05/22 00:28:43;;;;;;;4.82;4.07;;;;;;;7.55;100.00;101823.22;1033158;28;20419;-78
2022/05/22 00:29:16;;;;;;;5.50;4.20;;;;;;;7.68;100.00;101828.81;1035270;28;20297;-78
2022/05/22 00:29:52;;;;;;;8.30;4.18;;;;;;;7.68;100.00;101828.81;1040975;28;20426;-78
2022/05/22 00:30:33;;;;;;;4.47;4.07;;;;;;;7.63;100.00;101817.88;1046431;28;20306;-77
2022/05/22 00:31:24;;;;;;;4.53;4.13;;;;;;;7.38;100.00;101822.44;1040184;28;20049;-77
2022/05/22 00:31:57;;;;;;;10.25;4.10;;;;;;;7.29;100.00;101822.66;1043818;28;20037;-77
2022/05/22 00:32:56;;;;;;;5.53;4.28;;;;;;;7.21;100.00;101827.97;1039656;28;20785;-77
2022/05/22 00:33:37;;;;;;;7.80;3.95;;;;;;;7.11;100.00;101820.19;1036911;28;20687;-78
2022/05/22 00:34:15;;;;;;;6.65;3.85;;;;;;;7.09;100.00;101820.38;1040906;28;20657;-78
2022/05/22 00:34:53;;;;;;;6.43;3.50;;;;;;;7.15;100.00;101826.03;1038944;28;20389;-78
2022/05/22 00:36:39;;;;;;;4.70;3.75;;;;;;;7.29;100.00;101823.47;1043833;28;20732;-77
2022/05/22 00:37:15;;;;;;;6.18;3.55;;;;;;;7.53;100.00;101821.75;1037231;28;20297;-77
2022/05/22 00:37:52;;;;;;;6.43;4.03;;;;;;;7.56;100.00;101829.34;1039547;28;20299;-77
2022/05/22 00:42:01;;;;;;;6.28;3.83;;;;;;;7.32;100.00;101817.84;1031717;28;20328;-78
2022/05/22 00:42:45;;;;;;;9.60;5.18;;;;;;;7.14;100.00;101822.53;1031365;28;20053;-79
2022/05/22 00:43:24;;;;;;;5.78;3.58;;;;;;;7.19;100.00;101816.72;1023087;28;20382;-79
2022/05/22 00:43:57;;;;;;;4.70;3.70;;;;;;;7.17;100.00;101814.25;1023492;28;20302;-79
2022/05/22 00:44:31;;;;;;;6.18;4.00;;;;;;;7.07;100.00;101816.25;1012798;29;20781;-78
2022/05/22 00:45:03;;;;;;;4.00;3.60;;;;;;;6.94;100.00;101818.59;1014908;29;20313;-78
2022/05/22 00:45:35;;;;;;;5.43;3.88;;;;;;;6.83;100.00;101817.13;1015391;29;20316;-78
2022/05/22 00:46:11;;;;;;;4.72;3.50;;;;;;;6.90;100.00;101815.47;1016850;29;20300;-78
2022/05/22 00:46:43;;;;;;;5.32;3.72;;;;;;;7.11;100.00;101814.91;1030611;28;20296;-78
2022/05/22 00:47:16;;;;;;;7.03;3.55;;;;;;;7.24;100.00;101815.22;1036419;28;20319;-79
2022/05/22 00:47:50;;;;;;;4.18;3.70;;;;;;;7.30;100.00;101813.69;1035512;28;20321;-78
2022/05/22 00:48:22;;;;;;;6.55;3.80;;;;;;;7.42;100.00;101807.88;1036893;28;20297;-78
2022/05/22 00:49:02;;;;;;;7.75;4.22;;;;;;;7.50;100.00;101814.97;1036735;28;20293;-78
2022/05/22 00:49:35;;;;;;;5.07;3.85;;;;;;;7.61;100.00;101813.75;1035707;28;20304;-78
2022/05/22 00:50:06;;;;;;;9.65;4.13;;;;;;;7.62;100.00;101808.25;1034787;28;20297;-78
2022/05/22 00:50:38;;;;;;;5.43;4.43;;;;;;;7.73;100.00;101812.38;1032746;28;20312;-78
2022/05/22 00:51:14;;;;;;;5.28;4.30;;;;;;;7.79;100.00;101802.91;1030369;28;21129;-78
2022/05/22 00:51:53;;;;;;;10.15;4.68;;;;;;;7.87;100.00;101806.31;1031632;28;20294;-79
2022/05/22 00:52:35;;;;;;;7.65;5.20;;;;;;;7.83;100.00;101814.81;1037098;28;20317;-78
2022/05/22 00:53:07;;;;;;;6.20;4.30;;;;;;;7.80;100.00;101809.84;1036225;28;20316;-78
2022/05/22 00:53:42;;;;;;;4.55;4.10;;;;;;;7.73;100.00;101805.25;1033224;28;20305;-77
2022/05/22 00:54:42;;;;;;;10.27;3.28;;;;;;;7.37;100.00;101806.72;1035363;28;20323;-78
2022/05/22 00:55:17;;;;;;;4.45;3.45;;;;;;;7.43;100.00;101814.84;1036238;28;20327;-77
2022/05/22 00:55:52;;;;;;;7.68;4.43;;;;;;;7.50;100.00;101809.66;1035427;28;20391;-77
2022/05/22 00:56:35;;;;;;;5.47;4.07;;;;;;;7.42;100.00;101807.06;1039134;28;20311;-77
2022/05/22 00:57:17;;;;;;;10.00;4.70;;;;;;;7.21;100.00;101814.72;1025335;28;20322;-77
2022/05/22 00:58:37;;;;;;;5.07;4.57;;;;;;;7.38;100.00;101806.53;1039550;28;20283;-78
2022/05/22 00:59:15;;;;;;;5.65;4.47;;;;;;;7.41;100.00;101808.06;1039491;28;20323;-79
2022/05/22 00:59:51;;;;;;;;;;;;;;;7.52;100.00;101806.84;1035682;28;20396;-76
2022/05/22 01:01:38;;;;;;;5.93;3.70;;;;;;;7.57;99.72;101797.38;1036311;28;20304;-79
2022/05/22 01:02:13;;;;;;;4.60;3.45;;;;;;;7.55;99.18;101804.66;1033648;28;20298;-80
2022/05/22 01:03:41;;;;;;;3.78;3.15;;;;;;;7.21;99.23;101804.13;1035470;28;20336;-79
2022/05/22 01:04:23;;;;;;;6.95;3.22;;;;;;;7.23;99.27;101802.97;1038809;28;20397;-76
2022/05/22 01:04:56;;;;;;;6.97;4.28;;;;;;;7.25;99.24;101800.97;1036158;28;20311;-76
2022/05/22 01:05:32;;;;;;;8.07;3.40;;;;;;;7.31;99.30;101797.63;1031605;28;20788;-77
2022/05/22 01:06:10;;;;;;;3.88;3.47;;;;;;;7.35;99.08;101801.59;1035391;28;20307;-77
2022/05/22 01:06:42;;;;;;;4.38;3.85;;;;;;;7.35;98.88;101800.75;1035308;28;20389;-77
2022/05/22 01:07:18;;;;;;;5.55;3.65;;;;;;;7.47;99.32;101798.56;1033778;28;20308;-78
2022/05/22 01:07:57;;;;;;;10.32;3.47;;;;;;;7.50;98.79;101799.06;1027419;28;20293;-78
2022/05/22 01:08:31;;;;;;;9.63;3.33;;;;;;;7.19;98.68;101796.34;1031397;28;20363;-78
2022/05/22 01:09:03;;;;;;;5.90;3.22;;;;;;;7.13;98.77;101800.53;1035488;28;20308;-77
2022/05/22 01:09:35;;;;;;;4.68;3.42;;;;;;;6.87;98.29;101802.56;1033112;28;20384;-77
2022/05/22 01:10:14;;;;;;;5.10;3.75;;;;;;;6.53;98.45;101799.28;1035456;28;20304;-77
2022/05/22 01:10:53;;;;;;;3.97;3.35;;;;;;;6.37;98.85;101800.94;1029119;28;20306;-77
2022/05/22 01:11:31;;;;;;;7.43;4.25;;;;;;;6.40;99.47;101795.31;1036944;28;20293;-78
2022/05/22 01:12:13;;;;;;;4.22;3.83;;;;;;;6.44;99.98;101796.63;1038527;28;20299;-77
2022/05/22 01:12:51;;;;;;;9.07;3.72;;;;;;;6.64;100.00;101796.31;1042684;28;20333;-77
2022/05/22 01:13:26;;;;;;;7.28;4.35;;;;;;;6.89;100.00;101789.16;1039526;28;20817;-77
2022/05/22 01:14:06;;;;;;;4.15;3.75;;;;;;;6.91;100.00;101793.28;1034654;28;20803;-77
2022/05/22 01:15:24;;;;;;;6.82;3.72;;;;;;;6.81;100.00;101797.91;1038149;28;20290;-77
2022/05/22 01:15:43;;;;;;;4.63;4.22;;;;;;;6.58;100.00;101796.97;1034558;28;20394;-79
2022/05/22 01:16:20;;;;;;;4.97;3.38;;;;;;;6.56;100.00;101796.28;1032347;28;20396;-76
2022/05/22 01:16:52;;;;;;;5.00;3.67;;;;;;;6.43;100.00;101796.78;1036620;28;20312;-79
2022/05/22 01:17:31;;;;;;;4.75;4.35;;;;;;;6.36;100.00;101801.94;1041299;28;20709;-77
2022/05/22 01:18:06;;;;;;;4.45;3.90;;;;;;;6.29;100.00;101800.09;1039541;28;20350;-77
2022/05/22 01:18:54;;;;;;;5.80;4.28;;;;;;;6.23;100.00;101793.63;1029910;28;20388;-78
2022/05/22 01:19:29;;;;;;;;;;;;;;;6.29;100.00;101797.44;1031616;28;20412;-78
2022/05/22 01:20:11;;;;;;;3.58;3.28;;;;;;;6.32;100.00;101803.25;1035117;28;19935;-75
2022/05/22 01:20:51;;;;;;;4.25;3.15;;;;;;;6.28;100.00;101793.13;1031392;28;20306;-81
2022/05/22 01:21:28;;;;;;;6.13;3.05;;;;;;;6.50;100.00;101801.25;1033484;28;20305;-79
2022/05/22 01:22:04;;;;;;;6.20;4.20;;;;;;;6.67;100.00;101803.91;1034770;28;20806;-78
2022/05/22 01:22:37;;;;;;;5.70;3.67;;;;;;;6.82;100.00;101795.09;1036442;28;20297;-78
2022/05/22 01:23:13;;;;;;;4.93;3.83;;;;;;;6.78;100.00;101799.09;1031657;28;20305;-79
2022/05/22 01:23:46;;;;;;;7.88;4.05;;;;;;;6.29;100.00;101797.44;1027900;28;20294;-80
2022/05/22 01:24:35;;;;;;;6.10;3.65;;;;;;;6.19;100.00;101793.16;1034052;28;20293;-78
2022/05/22 01:25:09;;;;;;;5.82;4.25;;;;;;;6.20;100.00;101793.97;1038952;28;20406;-79
2022/05/22 01:25:40;;;;;;;6.05;3.85;;;;;;;6.28;100.00;101795.78;1035747;28;20666;-79
2022/05/22 01:26:18;;;;;;;7.78;4.38;;;;;;;6.35;100.00;101802.94;1029877;28;20649;-79
2022/05/22 01:27:02;;;;;;;4.97;3.70;;;;;;;6.31;100.00;101792.84;1031766;28;20301;-79
2022/05/22 01:27:54;;;;;;;3.53;3.20;;;;;;;6.39;100.00;101795.47;1032272;28;20307;-79
2022/05/22 01:28:27;;;;;;;4.10;3.28;;;;;;;6.44;100.00;101796.63;1034359;28;20374;-79
2022/05/22 01:29:08;;;;;;;6.57;3.33;;;;;;;6.26;100.00;101801.25;1038615;28;20295;-79
2022/05/22 01:29:43;;;;;;;10.73;4.10;;;;;;;6.06;100.00;101789.34;1037295;28;20049;-79
2022/05/22 01:30:20;;;;;;;17.25;4.07;;;;;;;5.98;100.00;101797.25;1040730;28;20861;-80
2022/05/22 01:31:00;;;;;;;4.65;3.83;;;;;;;5.87;100.00;101791.25;1031642;28;20317;-77
2022/05/22 01:31:35;;;;;;;6.13;3.50;;;;;;;6.17;100.00;101796.94;1034541;28;20315;-78
2022/05/22 01:32:09;;;;;;;4.03;3.70;;;;;;;6.36;100.00;101799.28;1030920;28;20377;-78
2022/05/22 01:32:42;;;;;;;6.85;3.97;;;;;;;6.23;100.00;101792.81;1036972;28;20375;-78
2022/05/22 01:33:14;;;;;;;4.15;3.75;;;;;;;6.12;100.00;101792.16;1031558;28;20294;-77
2022/05/22 01:35:01;;;;;;;4.13;3.75;;;;;;;6.06;100.00;101791.97;1022771;28;20318;-78
2022/05/22 01:35:39;;;;;;;4.07;3.75;;;;;;;5.97;100.00;101800.88;1029639;28;20401;-77
2022/05/22 01:36:15;;;;;;;9.13;4.20;;;;;;;5.91;100.00;101796.25;1031388;28;20799;-77
2022/05/22 01:36:53;;;;;;;4.82;4.15;;;;;;;6.01;100.00;101804.84;1035311;28;20312;-77
2022/05/22 01:37:25;;;;;;;3.95;3.60;;;;;;;6.12;100.00;101797.44;1027214;28;20305;-77
2022/05/22 01:37:57;;;;;;;5.13;3.70;;;;;;;6.35;100.00;101802.94;1034652;28;20848;-77
2022/05/22 01:38:30;;;;;;;3.95;3.63;;;;;;;6.51;100.00;101800.25;1034996;28;20332;-77
2022/05/22 01:39:02;;;;;;;8.52;3.95;;;;;;;6.65;100.00;101797.94;1035617;28;20710;-77
2022/05/22 01:40:00;;;;;;;9.02;4.47;;;;;;;6.78;100.00;101795.59;1033972;28;20307;-77
2022/05/22 01:40:44;;;;;;;4.57;4.18;;;;;;;6.82;100.00;101791.63;1038153;28;20707;-77
2022/05/22 01:41:19;;;;;;;5.35;4.03;;;;;;;6.85;100.00;101788.66;1036879;28;20811;-77
2022/05/22 01:41:51;;;;;;;6.07;4.28;;;;;;;6.94;100.00;101784.16;1037849;28;20325;-77
2022/05/22 01:42:24;;;;;;;5.50;4.00;;;;;;;6.92;100.00;101778.22;1039101;28;20678;-77
2022/05/22 01:43:41;;;;;;;4.07;3.72;;;;;;;6.42;100.00;101773.97;1043474;28;20342;-77
2022/05/22 01:44:20;;;;;;;5.97;4.13;;;;;;;6.25;100.00;101773.13;1040593;28;20778;-79
2022/05/22 01:45:00;;;;;;;8.88;4.40;;;;;;;6.13;100.00;101774.47;1038840;28;20732;-79
2022/05/22 01:45:32;;;;;;;4.60;3.97;;;;;;;6.02;100.00;101780.06;1035572;28;20786;-79
2022/05/22 01:46:05;;;;;;;7.45;4.00;;;;;;;5.86;100.00;101784.31;1034240;28;20392;-79
2022/05/22 01:46:37;;;;;;;3.55;3.25;;;;;;;5.78;100.00;101780.81;1033342;28;20300;-79
2022/05/22 01:47:11;;;;;;;5.80;4.00;;;;;;;5.84;100.00;101783.66;1033281;28;20298;-79
2022/05/22 01:47:44;;;;;;;4.35;3.30;;;;;;;5.99;100.00;101790.97;1035244;28;20301;-79
2022/05/22 01:48:16;;;;;;;7.72;3.97;;;;;;;6.21;100.00;101787.69;1030518;28;20306;-79
2022/05/22 01:48:48;;;;;;;4.55;4.03;;;;;;;6.29;100.00;101792.97;1031410;28;20294;-80
2022/05/22 01:49:26;;;;;;;5.55;4.65;;;;;;;6.49;100.00;101794.31;1031537;28;20313;-79
2022/05/22 01:49:57;;;;;;;5.38;4.32;;;;;;;6.39;100.00;101784.91;1031143;28;20752;-79
2022/05/22 01:50:33;;;;;;;8.27;4.78;;;;;;;6.40;100.00;101790.03;1035775;28;20302;-79
2022/05/22 01:51:27;;;;;;;8.13;4.13;;;;;;;6.53;100.00;101799.28;1036979;28;20305;-79
2022/05/22 01:52:02;;;;;;;7.25;4.60;;;;;;;6.39;100.00;101788.38;1037786;28;20314;-79
2022/05/22 01:52:35;;;;;;;3.67;3.38;;;;;;;6.29;100.00;101787.69;1034838;28;20399;-79
2022/05/22 01:53:07;;;;;;;8.27;4.18;;;;;;;6.36;100.00;101796.63;1034997;28;20622;-78
2022/05/22 01:53:38;;;;;;;4.93;4.50;;;;;;;6.27;100.00;101789.66;1030834;28;20305;-79
2022/05/22 01:54:10;;;;;;;4.90;4.45;;;;;;;6.06;100.00;101798.09;1032359;28;20301;-80
2022/05/22 01:54:44;;;;;;;5.97;4.70;;;;;;;6.04;100.00;101793.97;1038714;28;20300;-80
2022/05/22 01:55:16;;;;;;;5.90;4.35;;;;;;;5.89;100.00;101791.94;1040528;28;20813;-80
2022/05/22 01:55:51;;;;;;;4.95;3.30;;;;;;;5.77;100.00;101787.94;1039694;28;20304;-80
2022/05/22 01:56:27;;;;;;;28.77;5.50;;;;;;;5.74;100.00;101785.59;1039843;28;20797;-78
2022/05/22 01:56:58;;;;;;;5.28;4.47;;;;;;;5.77;100.00;101787.94;1035687;28;20308;-79
2022/05/22 01:57:39;;;;;;;5.03;3.88;;;;;;;5.59;100.00;101784.56;1037330;28;20336;-79
2022/05/22 01:58:14;;;;;;;9.57;4.75;;;;;;;5.58;100.00;101786.38;1032454;28;20041;-79
2022/05/22 01:58:48;;;;;;;4.65;4.35;;;;;;;5.72;100.00;101779.63;1033855;28;20297;-80
2022/05/22 01:59:29;;;;;;;5.05;4.55;;;;;;;5.93;100.00;101783.69;1032369;28;20396;-79
2022/05/22 02:00:15;;;;;;;5.15;4.20;;;;;;;5.87;100.00;101785.97;1033847;28;20042;-79
2022/05/22 02:00:47;;;;;;;7.70;4.55;;;;;;;5.98;100.00;101784.03;1031131;28;20656;-79
2022/05/22 02:01:24;;;;;;;5.25;4.43;;;;;;;6.05;100.00;101777.94;1037229;28;20719;-79
2022/05/22 02:01:55;;;;;;;4.47;4.07;;;;;;;5.81;100.00;101781.31;1041114;28;20300;-79
2022/05/22 02:02:27;;;;;;;5.22;4.50;;;;;;;5.80;100.00;101769.09;1040142;28;20879;-79
2022/05/22 02:03:02;;;;;;;6.25;4.03;;;;;;;5.84;100.00;101770.41;1037304;28;20327;-79
2022/05/22 02:03:37;;;;;;;4.63;4.20;;;;;;;5.94;100.00;101772.94;1039460;28;20341;-79
2022/05/22 02:04:10;;;;;;;8.80;4.47;;;;;;;5.79;100.00;101763.97;1035614;28;20308;-79
2022/05/22 02:04:42;;;;;;;8.57;4.97;;;;;;;5.69;100.00;101774.66;1036874;28;20292;-79
2022/05/22 02:05:16;;;;;;;10.27;5.65;;;;;;;5.57;100.00;101775.97;1033601;28;20305;-79
2022/05/22 02:05:50;;;;;;;4.93;4.40;;;;;;;5.49;100.00;101775.94;1037752;28;20308;-79
2022/05/22 02:06:22;;;;;;;5.68;4.38;;;;;;;5.48;100.00;101771.66;1043783;28;20287;-79
2022/05/22 02:08:44;;;;;;;6.93;4.10;;;;;;;5.44;100.00;101784.31;1036235;28;20356;-78
2022/05/22 02:09:16;;;;;;;5.85;4.75;;;;;;;5.68;100.00;101788.06;1037144;28;20308;-78
2022/05/22 02:09:52;;;;;;;6.90;4.55;;;;;;;5.74;100.00;101788.22;1035577;28;20312;-79
2022/05/22 02:10:26;;;;;;;4.55;4.15;;;;;;;5.73;100.00;101780.47;1038770;28;20296;-78
2022/05/22 02:11:06;;;;;;;5.72;4.53;;;;;;;5.64;100.00;101784.91;1041841;28;20358;-79
2022/05/22 02:12:26;;;;;;;5.45;4.07;;;;;;;5.52;100.00;101783.56;1023054;28;20333;-78
2022/05/22 02:12:59;;;;;;;4.43;4.03;;;;;;;5.60;100.00;101788.84;1031129;28;20306;-78
2022/05/22 02:13:44;;;;;;;4.75;4.40;;;;;;;5.69;100.00;101793.16;1044245;28;20299;-79
2022/05/22 02:14:17;;;;;;;4.32;3.95;;;;;;;5.82;100.00;101790.91;1037510;28;20815;-79
2022/05/22 02:14:55;;;;;;;6.93;4.13;;;;;;;5.97;100.00;101790.28;1032287;28;20304;-79
2022/05/22 02:15:28;;;;;;;6.95;4.30;;;;;;;6.05;100.00;101796.44;1027329;28;20393;-78
2022/05/22 02:16:00;;;;;;;6.45;5.22;;;;;;;6.10;100.00;101791.50;1033807;28;20308;-78
2022/05/22 02:16:35;;;;;;;7.45;4.55;;;;;;;6.19;100.00;101797.59;1038021;28;20304;-79
2022/05/22 02:17:37;;;;;;;5.90;4.47;;;;;;;6.21;100.00;101798.28;1035586;28;20301;-78
2022/05/22 02:18:10;;;;;;;5.15;4.63;;;;;;;6.10;100.00;101798.59;1028846;28;20441;-79
2022/05/22 02:18:46;;;;;;;5.60;4.30;;;;;;;5.89;100.00;101797.22;1030255;28;20305;-78
2022/05/22 02:19:18;;;;;;;5.00;4.60;;;;;;;5.79;100.00;101790.41;1028800;28;20309;-79
2022/05/22 02:19:57;;;;;;;7.45;5.07;;;;;;;5.91;100.00;101798.88;1033615;28;20312;-79
2022/05/22 02:20:58;;;;;;;9.10;4.90;;;;;;;6.03;100.00;101802.91;1033826;28;20286;-79
2022/05/22 02:21:32;;;;;;;5.75;4.35;;;;;;;6.07;100.00;101797.13;1038122;28;20311;-79
2022/05/22 02:22:04;;;;;;;7.05;5.18;;;;;;;6.16;100.00;101800.59;1036450;28;20303;-79
2022/05/22 02:22:46;;;;;;;9.63;4.75;;;;;;;6.25;100.00;101799.59;1037670;28;20288;-78
2022/05/22 02:23:19;;;;;;;5.25;3.85;;;;;;;6.31;100.00;101801.59;1037095;28;20428;-79
2022/05/22 02:23:55;;;;;;;4.20;3.65;;;;;;;6.39;100.00;101793.66;1033848;28;20358;-79
2022/05/22 02:24:27;;;;;;;4.47;3.53;;;;;;;6.41;100.00;101798.78;1031200;28;20309;-78
2022/05/22 02:25:13;;;;;;;6.35;4.07;;;;;;;6.40;100.00;101792.66;1028765;28;20294;-79
2022/05/22 02:25:48;;;;;;;5.57;3.83;;;;;;;6.22;100.00;101796.44;1035104;28;20297;-79
2022/05/22 02:26:20;;;;;;;4.45;3.60;;;;;;;6.16;100.00;101790.00;1033859;28;20407;-78
2022/05/22 02:26:52;;;;;;;3.80;3.53;;;;;;;6.29;100.00;101790.31;1032735;28;20300;-79
2022/05/22 02:27:24;;;;;;;4.22;3.90;;;;;;;6.36;100.00;101783.41;1030214;28;20310;-80
2022/05/22 02:27:57;;;;;;;4.82;3.47;;;;;;;6.31;100.00;101784.91;1028491;28;20812;-78
2022/05/22 02:28:31;;;;;;;3.88;3.58;;;;;;;6.29;100.00;101787.69;1030674;28;20316;-79
2022/05/22 02:29:03;;;;;;;3.40;3.20;;;;;;;6.19;100.00;101781.72;1030519;28;20311;-78
2022/05/22 02:29:35;;;;;;;5.15;3.70;;;;;;;5.97;100.00;101779.72;1028105;28;20301;-78
2022/05/22 02:30:09;;;;;;;3.92;3.63;;;;;;;5.83;100.00;101778.53;1031191;28;20305;-78
2022/05/22 02:30:43;;;;;;;7.13;4.82;;;;;;;6.04;100.00;101772.81;1029630;28;21174;-78
2022/05/22 02:31:14;;;;;;;4.55;4.15;;;;;;;6.09;100.00;101781.06;1032239;28;20811;-78
2022/05/22 02:31:50;;;;;;;4.63;3.45;;;;;;;6.00;100.00;101776.75;1035045;28;20392;-78
2022/05/22 02:32:22;;;;;;;4.82;3.42;;;;;;;5.83;100.00;101776.69;1036238;28;20304;-78
2022/05/22 02:32:54;;;;;;;8.20;3.65;;;;;;;5.66;99.85;101769.72;1028366;28;20321;-78
2022/05/22 02:33:27;;;;;;;3.35;3.13;;;;;;;5.68;99.94;101767.72;1027486;28;20298;-78
2022/05/22 02:34:03;;;;;;;3.53;3.22;;;;;;;5.76;100.00;101770.41;1031369;28;20297;-78
2022/05/22 02:34:35;;;;;;;5.22;4.28;;;;;;;5.93;100.00;101770.47;1034760;28;20309;-78
2022/05/22 02:35:09;;;;;;;6.00;3.88;;;;;;;5.67;100.00;101773.19;1038841;28;20423;-78
2022/05/22 02:35:41;;;;;;;4.18;3.60;;;;;;;5.58;100.00;101759.13;1035429;28;20889;-78
2022/05/22 02:36:22;;;;;;;3.88;3.50;;;;;;;5.40;100.00;101769.78;1033406;28;21154;-78
2022/05/22 02:36:56;;;;;;;5.80;3.67;;;;;;;5.32;100.00;101766.28;1039665;28;20414;-78
2022/05/22 02:37:29;;;;;;;6.00;3.58;;;;;;;5.32;100.00;101772.41;1037497;28;20304;-78
2022/05/22 02:38:02;;;;;;;5.93;3.58;;;;;;;5.38;100.00;101765.66;1031948;28;20305;-78
2022/05/22 02:38:43;;;;;;;4.85;4.03;;;;;;;5.62;100.00;101767.56;1030836;28;20859;-78
2022/05/22 02:39:18;;;;;;;4.20;3.83;;;;;;;5.82;100.00;101764.47;1027119;28;20831;-78
2022/05/22 02:39:50;;;;;;;5.05;3.88;;;;;;;5.85;100.00;101764.16;1029470;28;20302;-78
2022/05/22 02:40:50;;;;;;;8.07;4.57;;;;;;;5.82;100.00;101763.66;1040048;28;21385;-78
2022/05/22 02:41:21;;;;;;;4.05;3.65;;;;;;;5.82;100.00;101759.19;1035345;28;20312;-79
2022/05/22 02:42:07;;;;;;;6.72;4.13;;;;;;;5.75;100.00;101760.84;1039524;28;20288;-78
2022/05/22 02:42:43;;;;;;;3.97;3.50;;;;;;;5.83;100.00;101760.00;1037659;28;20296;-78
2022/05/22 02:43:22;;;;;;;4.80;4.38;;;;;;;5.76;100.00;101765.13;1032649;28;20317;-78
2022/05/22 02:43:59;;;;;;;4.43;4.03;;;;;;;5.64;100.00;101762.94;1025753;28;20765;-79
2022/05/22 02:44:30;;;;;;;7.88;4.47;;;;;;;5.73;100.00;101762.78;1029892;28;20313;-78
2022/05/22 02:45:02;;;;;;;5.78;3.70;;;;;;;5.73;100.00;101765.44;1029128;28;20313;-78
2022/05/22 02:45:36;;;;;;;4.32;3.92;;;;;;;5.67;100.00;101755.50;1028777;28;20302;-78
2022/05/22 02:46:14;;;;;;;6.70;4.15;;;;;;;5.53;100.00;101764.06;1035137;28;20822;-78
2022/05/22 02:46:45;;;;;;;4.25;3.88;;;;;;;5.46;100.00;101752.47;1030918;28;20893;-79
2022/05/22 02:47:17;;;;;;;5.45;3.88;;;;;;;5.50;100.00;101753.81;1032652;28;20387;-78
2022/05/22 02:47:49;;;;;;;4.95;4.53;;;;;;;5.45;100.00;101756.91;1031424;28;20300;-78
2022/05/22 02:48:21;;;;;;;7.63;4.65;;;;;;;5.45;100.00;101756.09;1035416;28;20478;-78
2022/05/22 02:49:08;;;;;;;8.25;4.40;;;;;;;5.21;100.00;101757.69;1026710;28;20688;-79
2022/05/22 02:49:42;;;;;;;5.85;4.03;;;;;;;5.11;100.00;101748.19;1035155;28;20301;-79
2022/05/22 02:50:15;;;;;;;7.72;3.65;;;;;;;5.13;100.00;101752.34;1033734;28;20399;-78
2022/05/22 02:50:47;;;;;;;5.10;4.00;;;;;;;5.05;100.00;101751.47;1037497;28;20782;-78
2022/05/22 02:51:20;;;;;;;6.28;4.18;;;;;;;5.12;100.00;101749.84;1035697;28;20300;-78
2022/05/22 02:51:52;;;;;;;5.43;4.28;;;;;;;5.10;100.00;101750.00;1032378;28;20385;-79
2022/05/22 02:52:24;;;;;;;4.82;3.97;;;;;;;5.10;100.00;101741.28;1034688;28;20305;-78
2022/05/22 02:52:56;;;;;;;4.43;4.07;;;;;;;5.13;100.00;101741.78;1035798;28;20351;-78
2022/05/22 02:53:32;;;;;;;5.97;4.72;;;;;;;5.24;100.00;101749.44;1033235;28;20309;-78
2022/05/22 02:54:24;;;;;;;6.75;4.07;;;;;;;5.40;100.00;101745.19;1035134;28;20376;-78
2022/05/22 02:55:03;;;;;;;5.07;4.55;;;;;;;5.56;100.00;101742.59;1033781;28;20191;-79
2022/05/22 02:55:35;;;;;;;5.00;4.43;;;;;;;5.65;100.00;101743.44;1035299;28;20301;-78
2022/05/22 02:56:11;;;;;;;5.60;4.78;;;;;;;5.55;100.00;101747.06;1038794;28;20312;-78
2022/05/22 02:57:04;;;;;;;7.35;4.03;;;;;;;5.10;100.00;101742.09;1034946;28;20380;-79
2022/05/22 02:57:43;;;;;;;6.63;4.38;;;;;;;5.15;100.00;101745.09;1042226;28;20303;-78
2022/05/22 02:58:14;;;;;;;7.15;4.88;;;;;;;5.14;100.00;101738.16;1042010;28;20863;-78
2022/05/22 02:58:46;;;;;;;4.78;4.38;;;;;;;5.01;100.00;101737.78;1039226;28;20307;-79
2022/05/22 02:59:17;;;;;;;5.97;4.40;;;;;;;4.88;100.00;101746.09;1036016;28;20311;-78
2022/05/22 03:00:17;;;;;;;7.20;4.68;;;;;;;4.99;100.00;101746.84;1039086;28;20307;-78
2022/05/22 03:00:52;;;;;;;8.10;4.35;;;;;;;5.01;100.00;101748.34;1038921;28;20805;-78
2022/05/22 03:01:24;;;;;;;6.25;4.20;;;;;;;5.05;100.00;101746.19;1036047;28;20381;-78
2022/05/22 03:01:56;;;;;;;4.45;3.95;;;;;;;5.02;100.00;101750.00;1034960;28;20830;-79
2022/05/22 03:02:27;;;;;;;4.72;3.97;;;;;;;5.07;100.00;101755.63;1028966;28;20393;-78
2022/05/22 03:02:59;;;;;;;8.23;4.93;;;;;;;5.08;100.00;101753.81;1031650;28;20301;-79